< Typhoon 198817 1988 Season Typhoon 198819 >
Typhoon 198818 (HAL)
General InformationTrack Information on Google MapsDetailed Wind InformationList of All Images || Disaster Info.ResourceGoogle EarthGE AnimationAtom FeedGeoJSON
Detalied Best Track (Time Zone = UTC)
Year Month Day Hour Lat. Long. Pressure (hPa) Wind (kt) Class Image Chart
1988 9 8 00 17.3 157.7 1004 0 2 Image Chart
1988 9 8 06 17.7 156.8 1004 0 2 Image Chart
1988 9 8 12 18.2 155.7 1002 0 2 Image Chart
1988 9 8 18 18.8 155.0 1000 0 2 Image Chart
1988 9 9 00 19.3 153.8 998 35 3 Image Chart
1988 9 9 06 20.2 152.0 996 40 3 Image Chart
1988 9 9 12 20.8 150.7 992 45 3 Image Chart
1988 9 9 18 20.9 149.7 990 50 4 Image Chart
1988 9 10 00 21.0 149.0 985 50 4 Image Chart
1988 9 10 06 20.9 148.5 980 55 4 Image Chart
1988 9 10 12 20.8 147.8 980 60 4 Image Chart
1988 9 10 18 20.7 147.2 975 60 4 Image Chart
1988 9 11 00 20.5 146.7 970 65 5 Image Chart
1988 9 11 06 20.1 146.1 970 70 5 Image Chart
1988 9 11 12 19.9 145.7 965 70 5 Image Chart
1988 9 11 18 19.7 145.7 960 75 5 Image Chart
1988 9 12 00 19.8 146.0 955 75 5 Image Chart
1988 9 12 06 20.4 146.2 955 80 5 Image Chart
1988 9 12 12 21.2 145.9 950 80 5 Image Chart
1988 9 12 18 22.1 145.4 945 85 5 Image Chart
1988 9 13 00 23.0 144.8 945 85 5 Image Chart
1988 9 13 06 24.1 144.3 945 85 5 Image Chart
1988 9 13 12 24.9 143.9 950 80 5 Image Chart
1988 9 13 18 26.0 143.6 950 80 5 Image Chart
1988 9 14 00 27.0 143.4 950 80 5 Image Chart
1988 9 14 06 28.2 143.1 950 80 5 Image Chart
1988 9 14 12 29.3 142.9 950 80 5 Image Chart
1988 9 14 18 30.8 142.5 955 75 5 Image Chart
1988 9 15 00 31.4 142.2 955 75 5 Image Chart
1988 9 15 06 31.9 142.3 960 70 5 Image Chart
1988 9 15 12 33.0 142.8 965 70 5 Image Chart
1988 9 15 18 34.3 143.5 965 70 5 Image Chart
1988 9 16 00 35.5 144.9 970 65 5 Image Chart
1988 9 16 06 37.1 146.0 970 65 5 Image Chart
1988 9 16 12 38.5 148.5 975 60 4 Image Chart
1988 9 16 18 40.0 152.0 980 55 4 Image Chart
1988 9 17 00 41.5 155.5 980 50 4 Image Chart
1988 9 17 06 42.5 159.0 980 0 6 Image Chart
1988 9 17 12 43.0 164.0 980 0 6 Image Chart
1988 9 17 18 43.5 168.0 980 0 6 Image Chart
1988 9 18 00 44.0 173.0 980 0 6 Image Chart
1988 9 18 06 47.0 180.0 976 0 6 Image Chart
Japan Meteorological Agency Best Track Data | Correction Date : 1992-10-21
< Typhoon 198817 1988 Season Typhoon 198819 >

Help